VIAR/ATQ METAR and TAF weather

Enter ICAO airport designator
Station Type Date Time Source
VIAR METAR 2019/11/14 03:30 UTC NOAA

VIAR 140330Z 00000KT 0800 R34/2000 MIFG SCT040 SCT090 17/14 Q1019 NOSIG


Station Type Date Time Source
VIAR Decoded METAR 2019/11/14 03:30 UTC NOAA

Amritsar, India (VIAR) 31-38N 074-52E 234M
Nov 13, 2019 - 10:30 PM EST / 2019.11.14 0330 UTC
Wind: Calm:0
Visibility: less than 1 mile:0
Sky conditions: partly cloudy
Weather: shallow fog
Temperature: 62 F (17 C)
Dew Point: 57 F (14 C)
Relative Humidity: 82%
Pressure (altimeter): 30.09 in. Hg (1019 hPa)
ob: VIAR 140330Z 00000KT 0800 R34/2000 MIFG SCT040 SCT090 17/14 Q1019 NOSIG
cycle: 3

Station Type Date Time Source
VIAR TAF 2019/11/13 18:54 UTC NOAA

TAF TAF VIAR 131700Z 1318/1424 00000KT 1200 BR SCT040 SCT090
BECMG 1400/1402 0800 MIFG
BECMG 1405/1407 29005KT 1000 HZ
BECMG 1412/1414 VRB02KT 1800 BR FEW040 SCT090
BECMG 1420/1422 00000KT 1000 BR -RA SCT040 BKN100

Example: see airport list